sensor_id;sensor_type;location;lat;lon;timestamp;temperature;humidity
23719;DHT22;43322;52.230;5.702;2023-05-18T00:02:26;6.90;99.90
23719;DHT22;43322;52.230;5.702;2023-05-18T00:04:53;6.90;99.90
23719;DHT22;43322;52.230;5.702;2023-05-18T00:07:19;6.90;99.90
23719;DHT22;43322;52.230;5.702;2023-05-18T00:09:46;6.90;99.90
23719;DHT22;43322;52.230;5.702;2023-05-18T00:12:13;6.90;99.90
23719;DHT22;43322;52.230;5.702;2023-05-18T00:14:41;6.80;99.90
23719;DHT22;43322;52.230;5.702;2023-05-18T00:17:08;6.80;99.90
23719;DHT22;43322;52.230;5.702;2023-05-18T00:19:34;6.80;99.90
23719;DHT22;43322;52.230;5.702;2023-05-18T00:22:01;6.80;99.90
23719;DHT22;43322;52.230;5.702;2023-05-18T00:24:28;6.70;99.90
23719;DHT22;43322;52.230;5.702;2023-05-18T00:26:55;6.70;99.90
23719;DHT22;43322;52.230;5.702;2023-05-18T00:29:21;6.60;99.90
23719;DHT22;43322;52.230;5.702;2023-05-18T00:31:49;6.60;99.90
23719;DHT22;43322;52.230;5.702;2023-05-18T00:34:16;6.60;99.90
23719;DHT22;43322;52.230;5.702;2023-05-18T00:36:43;6.50;99.90
23719;DHT22;43322;52.230;5.702;2023-05-18T00:39:09;6.40;99.90
23719;DHT22;43322;52.230;5.702;2023-05-18T00:41:36;6.40;99.90
23719;DHT22;43322;52.230;5.702;2023-05-18T00:44:03;6.30;99.90
23719;DHT22;43322;52.230;5.702;2023-05-18T00:46:30;6.30;99.90
23719;DHT22;43322;52.230;5.702;2023-05-18T00:48:58;6.20;99.90
23719;DHT22;43322;52.230;5.702;2023-05-18T00:51:27;6.20;99.90
23719;DHT22;43322;52.230;5.702;2023-05-18T00:53:55;6.20;99.90
23719;DHT22;43322;52.230;5.702;2023-05-18T00:56:22;6.30;99.90
23719;DHT22;43322;52.230;5.702;2023-05-18T00:58:51;6.30;99.90
23719;DHT22;43322;52.230;5.702;2023-05-18T01:01:21;6.30;99.90
23719;DHT22;43322;52.230;5.702;2023-05-18T01:03:48;6.30;99.90
23719;DHT22;43322;52.230;5.702;2023-05-18T01:06:22;6.20;99.90
23719;DHT22;43322;52.230;5.702;2023-05-18T01:08:50;6.20;99.90
23719;DHT22;43322;52.230;5.702;2023-05-18T01:11:23;6.20;99.90
23719;DHT22;43322;52.230;5.702;2023-05-18T01:13:57;6.10;99.90
23719;DHT22;43322;52.230;5.702;2023-05-18T01:16:30;6.10;99.90
23719;DHT22;43322;52.230;5.702;2023-05-18T01:19:08;6.00;99.90
23719;DHT22;43322;52.230;5.702;2023-05-18T01:21:55;6.00;99.90
23719;DHT22;43322;52.230;5.702;2023-05-18T01:24:25;6.00;99.90
23719;DHT22;43322;52.230;5.702;2023-05-18T01:26:59;6.00;99.90
23719;DHT22;43322;52.230;5.702;2023-05-18T01:29:28;6.00;99.90
23719;DHT22;43322;52.230;5.702;2023-05-18T01:31:55;6.00;99.90
23719;DHT22;43322;52.230;5.702;2023-05-18T01:34:22;6.00;99.90
23719;DHT22;43322;52.230;5.702;2023-05-18T01:36:49;6.00;99.90
23719;DHT22;43322;52.230;5.702;2023-05-18T01:39:15;6.00;99.90
23719;DHT22;43322;52.230;5.702;2023-05-18T01:41:48;5.90;99.90
23719;DHT22;43322;52.230;5.702;2023-05-18T01:44:19;6.00;99.90
23719;DHT22;43322;52.230;5.702;2023-05-18T01:46:52;6.00;99.90
23719;DHT22;43322;52.230;5.702;2023-05-18T01:49:27;6.00;99.90
23719;DHT22;43322;52.230;5.702;2023-05-18T01:51:57;6.00;99.90
23719;DHT22;43322;52.230;5.702;2023-05-18T01:54:27;5.90;99.90
23719;DHT22;43322;52.230;5.702;2023-05-18T01:56:55;5.90;99.90
23719;DHT22;43322;52.230;5.702;2023-05-18T01:59:25;5.80;99.90
23719;DHT22;43322;52.230;5.702;2023-05-18T02:01:51;5.80;99.90
23719;DHT22;43322;52.230;5.702;2023-05-18T02:04:20;5.80;99.90
23719;DHT22;43322;52.230;5.702;2023-05-18T02:06:47;5.80;99.90
23719;DHT22;43322;52.230;5.702;2023-05-18T02:09:13;5.80;99.90
23719;DHT22;43322;52.230;5.702;2023-05-18T02:11:40;5.80;99.90
23719;DHT22;43322;52.230;5.702;2023-05-18T02:14:07;5.70;99.90
23719;DHT22;43322;52.230;5.702;2023-05-18T02:16:35;5.80;99.90
23719;DHT22;43322;52.230;5.702;2023-05-18T02:19:01;5.80;99.90
23719;DHT22;43322;52.230;5.702;2023-05-18T02:21:29;5.80;99.90
23719;DHT22;43322;52.230;5.702;2023-05-18T02:23:55;5.80;99.90
23719;DHT22;43322;52.230;5.702;2023-05-18T02:26:22;5.80;99.90
23719;DHT22;43322;52.230;5.702;2023-05-18T02:28:49;5.70;99.90
23719;DHT22;43322;52.230;5.702;2023-05-18T02:31:15;5.70;99.90
23719;DHT22;43322;52.230;5.702;2023-05-18T02:33:43;5.70;99.90
23719;DHT22;43322;52.230;5.702;2023-05-18T02:36:11;5.70;99.90
23719;DHT22;43322;52.230;5.702;2023-05-18T02:38:40;5.70;99.90
23719;DHT22;43322;52.230;5.702;2023-05-18T02:41:06;5.70;99.90
23719;DHT22;43322;52.230;5.702;2023-05-18T02:43:33;5.70;99.90
23719;DHT22;43322;52.230;5.702;2023-05-18T02:46:00;5.60;99.90
23719;DHT22;43322;52.230;5.702;2023-05-18T02:48:27;5.60;99.90
23719;DHT22;43322;52.230;5.702;2023-05-18T02:50:55;5.70;99.90
23719;DHT22;43322;52.230;5.702;2023-05-18T02:53:23;5.70;99.90
23719;DHT22;43322;52.230;5.702;2023-05-18T02:55:53;5.60;99.90
23719;DHT22;43322;52.230;5.702;2023-05-18T02:58:21;5.60;99.90
23719;DHT22;43322;52.230;5.702;2023-05-18T03:00:50;5.60;99.90
23719;DHT22;43322;52.230;5.702;2023-05-18T03:03:19;5.60;99.90
23719;DHT22;43322;52.230;5.702;2023-05-18T03:05:46;5.50;99.90
23719;DHT22;43322;52.230;5.702;2023-05-18T03:08:14;5.60;99.90
23719;DHT22;43322;52.230;5.702;2023-05-18T03:10:40;5.50;99.90
23719;DHT22;43322;52.230;5.702;2023-05-18T03:13:07;5.50;99.90
23719;DHT22;43322;52.230;5.702;2023-05-18T03:15:34;5.50;99.90
23719;DHT22;43322;52.230;5.702;2023-05-18T03:18:02;5.50;99.90
23719;DHT22;43322;52.230;5.702;2023-05-18T03:20:28;5.50;99.90
23719;DHT22;43322;52.230;5.702;2023-05-18T03:22:56;5.40;99.90
23719;DHT22;43322;52.230;5.702;2023-05-18T03:25:24;5.40;99.90
23719;DHT22;43322;52.230;5.702;2023-05-18T03:27:51;5.40;99.90
23719;DHT22;43322;52.230;5.702;2023-05-18T03:30:18;5.40;99.90
23719;DHT22;43322;52.230;5.702;2023-05-18T03:32:45;5.40;99.90
23719;DHT22;43322;52.230;5.702;2023-05-18T03:35:12;5.40;99.90
23719;DHT22;43322;52.230;5.702;2023-05-18T03:37:39;5.40;99.90
23719;DHT22;43322;52.230;5.702;2023-05-18T03:40:12;5.30;99.90
23719;DHT22;43322;52.230;5.702;2023-05-18T03:42:41;5.30;99.90
23719;DHT22;43322;52.230;5.702;2023-05-18T03:45:09;5.30;99.90
23719;DHT22;43322;52.230;5.702;2023-05-18T03:47:36;5.20;99.90
23719;DHT22;43322;52.230;5.702;2023-05-18T03:50:03;5.20;99.90
23719;DHT22;43322;52.230;5.702;2023-05-18T03:52:30;5.20;99.90
23719;DHT22;43322;52.230;5.702;2023-05-18T03:54:59;5.20;99.90
23719;DHT22;43322;52.230;5.702;2023-05-18T03:57:26;5.20;99.90
23719;DHT22;43322;52.230;5.702;2023-05-18T03:59:55;5.20;99.90
23719;DHT22;43322;52.230;5.702;2023-05-18T04:02:22;5.20;99.90
23719;DHT22;43322;52.230;5.702;2023-05-18T04:04:48;5.20;99.90
23719;DHT22;43322;52.230;5.702;2023-05-18T04:07:18;5.20;99.90
23719;DHT22;43322;52.230;5.702;2023-05-18T04:09:46;5.20;99.90
23719;DHT22;43322;52.230;5.702;2023-05-18T04:12:13;5.20;99.90
23719;DHT22;43322;52.230;5.702;2023-05-18T04:14:40;5.20;99.90
23719;DHT22;43322;52.230;5.702;2023-05-18T04:17:08;5.20;99.90
23719;DHT22;43322;52.230;5.702;2023-05-18T04:19:35;5.20;99.90
23719;DHT22;43322;52.230;5.702;2023-05-18T04:22:02;5.20;99.90
23719;DHT22;43322;52.230;5.702;2023-05-18T04:24:29;5.20;99.90
23719;DHT22;43322;52.230;5.702;2023-05-18T04:26:57;5.20;99.90
23719;DHT22;43322;52.230;5.702;2023-05-18T04:29:25;5.30;99.90
23719;DHT22;43322;52.230;5.702;2023-05-18T04:31:52;5.40;99.90
23719;DHT22;43322;52.230;5.702;2023-05-18T04:34:27;5.40;99.90
23719;DHT22;43322;52.230;5.702;2023-05-18T04:36:54;5.40;99.90
23719;DHT22;43322;52.230;5.702;2023-05-18T04:39:23;5.50;99.90
23719;DHT22;43322;52.230;5.702;2023-05-18T04:41:50;5.50;99.90
23719;DHT22;43322;52.230;5.702;2023-05-18T04:44:22;5.60;99.90
23719;DHT22;43322;52.230;5.702;2023-05-18T04:46:50;5.70;99.90
23719;DHT22;43322;52.230;5.702;2023-05-18T04:49:17;5.80;99.90
23719;DHT22;43322;52.230;5.702;2023-05-18T04:51:47;5.80;99.90
23719;DHT22;43322;52.230;5.702;2023-05-18T04:54:14;5.90;99.90
23719;DHT22;43322;52.230;5.702;2023-05-18T04:56:41;5.90;99.90
23719;DHT22;43322;52.230;5.702;2023-05-18T04:59:08;6.00;99.90
23719;DHT22;43322;52.230;5.702;2023-05-18T05:01:35;6.10;99.90
23719;DHT22;43322;52.230;5.702;2023-05-18T05:04:02;6.20;99.90
23719;DHT22;43322;52.230;5.702;2023-05-18T05:06:30;6.30;99.90
23719;DHT22;43322;52.230;5.702;2023-05-18T05:08:58;6.40;99.90
23719;DHT22;43322;52.230;5.702;2023-05-18T05:11:25;6.60;99.90
23719;DHT22;43322;52.230;5.702;2023-05-18T05:13:52;6.70;99.90
23719;DHT22;43322;52.230;5.702;2023-05-18T05:16:18;6.80;99.90
23719;DHT22;43322;52.230;5.702;2023-05-18T05:18:45;6.90;99.90
23719;DHT22;43322;52.230;5.702;2023-05-18T05:21:12;7.00;99.90
23719;DHT22;43322;52.230;5.702;2023-05-18T05:23:38;7.10;99.90
23719;DHT22;43322;52.230;5.702;2023-05-18T05:26:07;7.20;99.90
23719;DHT22;43322;52.230;5.702;2023-05-18T05:28:33;7.40;99.90
23719;DHT22;43322;52.230;5.702;2023-05-18T05:31:00;7.40;99.90
23719;DHT22;43322;52.230;5.702;2023-05-18T05:33:27;7.50;99.90
23719;DHT22;43322;52.230;5.702;2023-05-18T05:35:53;7.50;99.90
23719;DHT22;43322;52.230;5.702;2023-05-18T05:38:20;7.60;99.90
23719;DHT22;43322;52.230;5.702;2023-05-18T05:40:47;7.70;99.90
23719;DHT22;43322;52.230;5.702;2023-05-18T05:43:15;7.80;99.90
23719;DHT22;43322;52.230;5.702;2023-05-18T05:45:41;7.90;99.90
23719;DHT22;43322;52.230;5.702;2023-05-18T05:48:09;8.00;99.90
23719;DHT22;43322;52.230;5.702;2023-05-18T05:50:35;8.20;99.90
23719;DHT22;43322;52.230;5.702;2023-05-18T05:53:02;8.30;99.90
23719;DHT22;43322;52.230;5.702;2023-05-18T05:55:29;8.40;99.90
23719;DHT22;43322;52.230;5.702;2023-05-18T05:57:55;8.60;99.90
23719;DHT22;43322;52.230;5.702;2023-05-18T06:00:24;8.70;99.90
23719;DHT22;43322;52.230;5.702;2023-05-18T06:02:52;8.80;99.90
23719;DHT22;43322;52.230;5.702;2023-05-18T06:05:18;8.90;99.90
23719;DHT22;43322;52.230;5.702;2023-05-18T06:07:45;9.00;99.90
23719;DHT22;43322;52.230;5.702;2023-05-18T06:10:12;9.00;99.90
23719;DHT22;43322;52.230;5.702;2023-05-18T06:12:39;9.20;99.90
23719;DHT22;43322;52.230;5.702;2023-05-18T06:15:07;9.60;99.90
23719;DHT22;43322;52.230;5.702;2023-05-18T06:17:35;9.40;99.90
23719;DHT22;43322;52.230;5.702;2023-05-18T06:20:03;9.40;99.90
23719;DHT22;43322;52.230;5.702;2023-05-18T06:22:31;9.60;99.90
23719;DHT22;43322;52.230;5.702;2023-05-18T06:24:58;9.60;99.90
23719;DHT22;43322;52.230;5.702;2023-05-18T06:27:24;9.60;99.90
23719;DHT22;43322;52.230;5.702;2023-05-18T06:29:51;9.60;99.90
23719;DHT22;43322;52.230;5.702;2023-05-18T06:32:18;9.50;99.90
23719;DHT22;43322;52.230;5.702;2023-05-18T06:34:46;9.50;99.90
23719;DHT22;43322;52.230;5.702;2023-05-18T06:37:15;9.50;99.90
23719;DHT22;43322;52.230;5.702;2023-05-18T06:39:42;9.50;99.90
23719;DHT22;43322;52.230;5.702;2023-05-18T06:42:09;9.40;99.90
23719;DHT22;43322;52.230;5.702;2023-05-18T06:44:35;9.30;99.90
23719;DHT22;43322;52.230;5.702;2023-05-18T06:47:02;9.20;99.90
23719;DHT22;43322;52.230;5.702;2023-05-18T06:49:29;9.20;99.90
23719;DHT22;43322;52.230;5.702;2023-05-18T06:51:57;9.10;99.90
23719;DHT22;43322;52.230;5.702;2023-05-18T06:54:24;8.90;99.90
23719;DHT22;43322;52.230;5.702;2023-05-18T06:56:51;8.80;99.90
23719;DHT22;43322;52.230;5.702;2023-05-18T06:59:17;8.80;99.90
23719;DHT22;43322;52.230;5.702;2023-05-18T07:01:44;8.80;99.90
23719;DHT22;43322;52.230;5.702;2023-05-18T07:04:11;8.80;99.90
23719;DHT22;43322;52.230;5.702;2023-05-18T07:06:38;9.00;99.90
23719;DHT22;43322;52.230;5.702;2023-05-18T07:09:06;9.10;99.90
23719;DHT22;43322;52.230;5.702;2023-05-18T07:11:33;9.20;99.90
23719;DHT22;43322;52.230;5.702;2023-05-18T07:14:00;9.30;99.90
23719;DHT22;43322;52.230;5.702;2023-05-18T07:16:27;9.50;99.90
23719;DHT22;43322;52.230;5.702;2023-05-18T07:18:53;9.70;99.90
23719;DHT22;43322;52.230;5.702;2023-05-18T07:21:20;9.80;99.90
23719;DHT22;43322;52.230;5.702;2023-05-18T07:23:46;9.90;99.90
23719;DHT22;43322;52.230;5.702;2023-05-18T07:26:14;10.10;99.90
23719;DHT22;43322;52.230;5.702;2023-05-18T07:28:41;10.20;99.90
23719;DHT22;43322;52.230;5.702;2023-05-18T07:31:08;10.40;99.90
23719;DHT22;43322;52.230;5.702;2023-05-18T07:33:35;10.40;99.90
23719;DHT22;43322;52.230;5.702;2023-05-18T07:36:02;10.50;99.90
23719;DHT22;43322;52.230;5.702;2023-05-18T07:38:28;10.50;99.90
23719;DHT22;43322;52.230;5.702;2023-05-18T07:40:55;10.50;99.90
23719;DHT22;43322;52.230;5.702;2023-05-18T07:43:25;10.40;99.90
23719;DHT22;43322;52.230;5.702;2023-05-18T07:45:52;10.40;99.90
23719;DHT22;43322;52.230;5.702;2023-05-18T07:48:18;10.50;99.90
23719;DHT22;43322;52.230;5.702;2023-05-18T07:50:45;10.50;99.90
23719;DHT22;43322;52.230;5.702;2023-05-18T07:53:12;10.60;99.90
23719;DHT22;43322;52.230;5.702;2023-05-18T07:55:38;10.70;99.90
23719;DHT22;43322;52.230;5.702;2023-05-18T07:58:06;10.90;99.90
23719;DHT22;43322;52.230;5.702;2023-05-18T08:00:35;11.00;99.90
23719;DHT22;43322;52.230;5.702;2023-05-18T08:03:02;11.10;99.90
23719;DHT22;43322;52.230;5.702;2023-05-18T08:05:31;11.20;99.90
23719;DHT22;43322;52.230;5.702;2023-05-18T08:07:57;11.30;99.90
23719;DHT22;43322;52.230;5.702;2023-05-18T08:10:24;11.40;99.90
23719;DHT22;43322;52.230;5.702;2023-05-18T08:12:51;11.40;99.90
23719;DHT22;43322;52.230;5.702;2023-05-18T08:15:17;11.60;99.90
23719;DHT22;43322;52.230;5.702;2023-05-18T08:17:45;11.70;99.90
23719;DHT22;43322;52.230;5.702;2023-05-18T08:20:12;11.80;99.90
23719;DHT22;43322;52.230;5.702;2023-05-18T08:22:39;11.60;99.90
23719;DHT22;43322;52.230;5.702;2023-05-18T08:25:06;11.50;99.90
23719;DHT22;43322;52.230;5.702;2023-05-18T08:27:34;11.40;99.90
23719;DHT22;43322;52.230;5.702;2023-05-18T08:30:01;11.60;99.90
23719;DHT22;43322;52.230;5.702;2023-05-18T08:32:28;12.00;99.90
23719;DHT22;43322;52.230;5.702;2023-05-18T08:34:56;11.90;99.90
23719;DHT22;43322;52.230;5.702;2023-05-18T08:37:23;11.60;99.90
23719;DHT22;43322;52.230;5.702;2023-05-18T08:39:53;11.50;99.90
23719;DHT22;43322;52.230;5.702;2023-05-18T08:42:22;11.40;99.90
23719;DHT22;43322;52.230;5.702;2023-05-18T08:45:00;11.70;99.90
23719;DHT22;43322;52.230;5.702;2023-05-18T08:47:29;12.10;99.90
23719;DHT22;43322;52.230;5.702;2023-05-18T08:49:58;12.20;99.90
23719;DHT22;43322;52.230;5.702;2023-05-18T08:52:29;12.10;99.90
23719;DHT22;43322;52.230;5.702;2023-05-18T08:55:05;12.10;99.90
23719;DHT22;43322;52.230;5.702;2023-05-18T08:57:33;12.50;99.90
23719;DHT22;43322;52.230;5.702;2023-05-18T09:00:01;12.80;99.90
23719;DHT22;43322;52.230;5.702;2023-05-18T09:02:28;13.10;99.90
23719;DHT22;43322;52.230;5.702;2023-05-18T09:04:57;13.40;99.90
23719;DHT22;43322;52.230;5.702;2023-05-18T09:07:24;13.80;99.90
23719;DHT22;43322;52.230;5.702;2023-05-18T09:09:54;14.00;99.90
23719;DHT22;43322;52.230;5.702;2023-05-18T09:12:21;14.00;99.90
23719;DHT22;43322;52.230;5.702;2023-05-18T09:14:47;13.80;99.90
23719;DHT22;43322;52.230;5.702;2023-05-18T09:17:14;13.60;99.90
23719;DHT22;43322;52.230;5.702;2023-05-18T09:19:41;13.60;99.90
23719;DHT22;43322;52.230;5.702;2023-05-18T09:22:09;13.60;99.90
23719;DHT22;43322;52.230;5.702;2023-05-18T09:24:36;13.80;99.90
23719;DHT22;43322;52.230;5.702;2023-05-18T09:27:03;14.00;99.90
23719;DHT22;43322;52.230;5.702;2023-05-18T09:29:30;14.10;99.90
23719;DHT22;43322;52.230;5.702;2023-05-18T09:32:01;14.30;99.90
23719;DHT22;43322;52.230;5.702;2023-05-18T09:34:38;14.50;99.90
23719;DHT22;43322;52.230;5.702;2023-05-18T09:37:05;14.10;99.90
23719;DHT22;43322;52.230;5.702;2023-05-18T09:39:33;14.00;99.90
23719;DHT22;43322;52.230;5.702;2023-05-18T09:42:01;13.80;99.90
23719;DHT22;43322;52.230;5.702;2023-05-18T09:44:30;14.10;99.90
23719;DHT22;43322;52.230;5.702;2023-05-18T09:46:57;14.40;99.90
23719;DHT22;43322;52.230;5.702;2023-05-18T09:49:23;14.70;99.90
23719;DHT22;43322;52.230;5.702;2023-05-18T09:51:50;15.00;99.90
23719;DHT22;43322;52.230;5.702;2023-05-18T09:54:17;15.30;99.90
23719;DHT22;43322;52.230;5.702;2023-05-18T09:56:46;15.60;99.90
23719;DHT22;43322;52.230;5.702;2023-05-18T09:59:14;15.70;99.90
23719;DHT22;43322;52.230;5.702;2023-05-18T10:01:57;15.40;99.90
23719;DHT22;43322;52.230;5.702;2023-05-18T10:04:34;15.20;99.90
23719;DHT22;43322;52.230;5.702;2023-05-18T10:07:01;15.50;99.90
23719;DHT22;43322;52.230;5.702;2023-05-18T10:09:28;16.00;99.90
23719;DHT22;43322;52.230;5.702;2023-05-18T10:11:57;16.30;99.90
23719;DHT22;43322;52.230;5.702;2023-05-18T10:14:23;16.30;99.90
23719;DHT22;43322;52.230;5.702;2023-05-18T10:16:51;16.80;99.90
23719;DHT22;43322;52.230;5.702;2023-05-18T10:19:18;17.20;99.90
23719;DHT22;43322;52.230;5.702;2023-05-18T10:21:45;17.40;99.90
23719;DHT22;43322;52.230;5.702;2023-05-18T10:24:15;18.00;99.90
23719;DHT22;43322;52.230;5.702;2023-05-18T10:26:44;18.40;99.90
23719;DHT22;43322;52.230;5.702;2023-05-18T10:29:14;18.60;99.90
23719;DHT22;43322;52.230;5.702;2023-05-18T10:31:43;18.90;99.90
23719;DHT22;43322;52.230;5.702;2023-05-18T10:34:11;19.20;99.50
23719;DHT22;43322;52.230;5.702;2023-05-18T10:36:38;19.40;99.90
23719;DHT22;43322;52.230;5.702;2023-05-18T10:39:06;19.60;97.10
23719;DHT22;43322;52.230;5.702;2023-05-18T10:41:34;19.80;98.60
23719;DHT22;43322;52.230;5.702;2023-05-18T10:44:02;19.60;95.70
23719;DHT22;43322;52.230;5.702;2023-05-18T10:46:30;19.90;96.60
23719;DHT22;43322;52.230;5.702;2023-05-18T10:49:00;20.10;93.70
23719;DHT22;43322;52.230;5.702;2023-05-18T10:51:29;20.20;93.60
23719;DHT22;43322;52.230;5.702;2023-05-18T10:54:09;20.20;92.90
23719;DHT22;43322;52.230;5.702;2023-05-18T10:56:37;20.30;94.00
23719;DHT22;43322;52.230;5.702;2023-05-18T10:59:04;20.20;92.00
23719;DHT22;43322;52.230;5.702;2023-05-18T11:01:34;20.50;93.70
23719;DHT22;43322;52.230;5.702;2023-05-18T11:04:02;20.30;93.30
23719;DHT22;43322;52.230;5.702;2023-05-18T11:06:30;20.00;91.10
23719;DHT22;43322;52.230;5.702;2023-05-18T11:08:58;19.70;91.70
23719;DHT22;43322;52.230;5.702;2023-05-18T11:11:24;19.60;94.20
23719;DHT22;43322;52.230;5.702;2023-05-18T11:13:59;19.70;92.70
23719;DHT22;43322;52.230;5.702;2023-05-18T11:16:32;19.60;88.80
23719;DHT22;43322;52.230;5.702;2023-05-18T11:19:04;19.70;92.90
23719;DHT22;43322;52.230;5.702;2023-05-18T11:21:49;20.20;93.40
23719;DHT22;43322;52.230;5.702;2023-05-18T11:24:17;20.60;93.00
23719;DHT22;43322;52.230;5.702;2023-05-18T11:26:45;20.80;93.60
23719;DHT22;43322;52.230;5.702;2023-05-18T11:29:17;21.00;88.10
23719;DHT22;43322;52.230;5.702;2023-05-18T11:31:44;21.20;90.90
23719;DHT22;43322;52.230;5.702;2023-05-18T11:34:35;21.30;90.10
23719;DHT22;43322;52.230;5.702;2023-05-18T11:37:02;21.50;95.20
23719;DHT22;43322;52.230;5.702;2023-05-18T11:39:30;21.50;92.20
23719;DHT22;43322;52.230;5.702;2023-05-18T11:42:01;21.80;90.30
23719;DHT22;43322;52.230;5.702;2023-05-18T11:44:30;22.00;83.90
23719;DHT22;43322;52.230;5.702;2023-05-18T11:47:02;22.00;85.40
23719;DHT22;43322;52.230;5.702;2023-05-18T11:49:31;22.10;88.50
23719;DHT22;43322;52.230;5.702;2023-05-18T11:52:07;22.00;88.10
23719;DHT22;43322;52.230;5.702;2023-05-18T11:54:41;22.10;81.00
23719;DHT22;43322;52.230;5.702;2023-05-18T11:57:09;22.10;82.60
23719;DHT22;43322;52.230;5.702;2023-05-18T11:59:37;21.60;91.00
23719;DHT22;43322;52.230;5.702;2023-05-18T12:02:04;21.20;85.20
23719;DHT22;43322;52.230;5.702;2023-05-18T12:04:32;21.00;87.00
23719;DHT22;43322;52.230;5.702;2023-05-18T12:07:03;21.30;87.20
23719;DHT22;43322;52.230;5.702;2023-05-18T12:09:32;22.00;87.30
23719;DHT22;43322;52.230;5.702;2023-05-18T12:12:00;22.70;84.30
23719;DHT22;43322;52.230;5.702;2023-05-18T12:14:27;22.80;81.40
23719;DHT22;43322;52.230;5.702;2023-05-18T12:16:56;22.90;85.70
23719;DHT22;43322;52.230;5.702;2023-05-18T12:19:24;23.20;81.40
23719;DHT22;43322;52.230;5.702;2023-05-18T12:21:51;23.40;82.70
23719;DHT22;43322;52.230;5.702;2023-05-18T12:24:18;23.30;84.70
23719;DHT22;43322;52.230;5.702;2023-05-18T12:26:46;22.90;86.60
23719;DHT22;43322;52.230;5.702;2023-05-18T12:29:13;22.60;83.30
23719;DHT22;43322;52.230;5.702;2023-05-18T12:31:45;21.80;78.10
23719;DHT22;43322;52.230;5.702;2023-05-18T12:34:13;21.30;80.30
23719;DHT22;43322;52.230;5.702;2023-05-18T12:36:41;21.40;82.60
23719;DHT22;43322;52.230;5.702;2023-05-18T12:39:08;21.40;85.50
23719;DHT22;43322;52.230;5.702;2023-05-18T12:41:35;21.60;82.70
23719;DHT22;43322;52.230;5.702;2023-05-18T12:44:03;21.70;85.80
23719;DHT22;43322;52.230;5.702;2023-05-18T12:46:30;21.60;85.20
23719;DHT22;43322;52.230;5.702;2023-05-18T12:48:58;21.40;79.50
23719;DHT22;43322;52.230;5.702;2023-05-18T12:51:31;21.50;79.90
23719;DHT22;43322;52.230;5.702;2023-05-18T12:53:58;21.30;81.80
23719;DHT22;43322;52.230;5.702;2023-05-18T12:56:25;21.00;79.00
23719;DHT22;43322;52.230;5.702;2023-05-18T12:58:56;21.50;82.70
23719;DHT22;43322;52.230;5.702;2023-05-18T13:01:25;22.10;90.40
23719;DHT22;43322;52.230;5.702;2023-05-18T13:03:55;22.30;81.30
23719;DHT22;43322;52.230;5.702;2023-05-18T13:06:23;22.60;80.70
23719;DHT22;43322;52.230;5.702;2023-05-18T13:08:52;22.60;78.30
23719;DHT22;43322;52.230;5.702;2023-05-18T13:11:23;22.20;78.90
23719;DHT22;43322;52.230;5.702;2023-05-18T13:13:57;22.10;77.90
23719;DHT22;43322;52.230;5.702;2023-05-18T13:16:25;21.90;80.30
23719;DHT22;43322;52.230;5.702;2023-05-18T13:18:58;21.10;81.00
23719;DHT22;43322;52.230;5.702;2023-05-18T13:21:25;20.60;80.50
23719;DHT22;43322;52.230;5.702;2023-05-18T13:23:52;20.50;79.40
23719;DHT22;43322;52.230;5.702;2023-05-18T13:26:20;20.40;84.70
23719;DHT22;43322;52.230;5.702;2023-05-18T13:28:49;20.60;84.30
23719;DHT22;43322;52.230;5.702;2023-05-18T13:31:16;21.00;85.30
23719;DHT22;43322;52.230;5.702;2023-05-18T13:33:44;21.20;84.60
23719;DHT22;43322;52.230;5.702;2023-05-18T13:36:11;21.50;81.90
23719;DHT22;43322;52.230;5.702;2023-05-18T13:38:38;21.70;79.00
23719;DHT22;43322;52.230;5.702;2023-05-18T13:41:07;21.80;84.20
23719;DHT22;43322;52.230;5.702;2023-05-18T13:43:35;21.90;92.50
23719;DHT22;43322;52.230;5.702;2023-05-18T13:46:02;22.00;88.00
23719;DHT22;43322;52.230;5.702;2023-05-18T13:48:29;21.90;79.10
23719;DHT22;43322;52.230;5.702;2023-05-18T13:50:57;21.90;81.20
23719;DHT22;43322;52.230;5.702;2023-05-18T13:53:25;22.00;82.50
23719;DHT22;43322;52.230;5.702;2023-05-18T13:55:52;21.90;87.50
23719;DHT22;43322;52.230;5.702;2023-05-18T13:58:19;21.90;85.00
23719;DHT22;43322;52.230;5.702;2023-05-18T14:00:46;21.70;81.40
23719;DHT22;43322;52.230;5.702;2023-05-18T14:03:12;21.50;79.90
23719;DHT22;43322;52.230;5.702;2023-05-18T14:05:41;21.40;81.40
23719;DHT22;43322;52.230;5.702;2023-05-18T14:08:09;21.60;82.20
23719;DHT22;43322;52.230;5.702;2023-05-18T14:10:36;21.50;91.30
23719;DHT22;43322;52.230;5.702;2023-05-18T14:13:03;21.60;88.60
23719;DHT22;43322;52.230;5.702;2023-05-18T14:15:30;21.60;84.00
23719;DHT22;43322;52.230;5.702;2023-05-18T14:17:57;21.40;79.60
23719;DHT22;43322;52.230;5.702;2023-05-18T14:20:23;21.20;78.80
23719;DHT22;43322;52.230;5.702;2023-05-18T14:22:50;21.10;86.40
23719;DHT22;43322;52.230;5.702;2023-05-18T14:25:18;21.00;83.20
23719;DHT22;43322;52.230;5.702;2023-05-18T14:27:45;21.00;86.20
23719;DHT22;43322;52.230;5.702;2023-05-18T14:30:12;20.80;83.90
23719;DHT22;43322;52.230;5.702;2023-05-18T14:32:38;21.20;87.90
23719;DHT22;43322;52.230;5.702;2023-05-18T14:35:06;21.00;89.00
23719;DHT22;43322;52.230;5.702;2023-05-18T14:37:32;21.00;86.10
23719;DHT22;43322;52.230;5.702;2023-05-18T14:40:00;20.90;93.40
23719;DHT22;43322;52.230;5.702;2023-05-18T14:42:28;20.90;87.00
23719;DHT22;43322;52.230;5.702;2023-05-18T14:44:55;20.90;86.40
23719;DHT22;43322;52.230;5.702;2023-05-18T14:47:22;20.90;83.50
23719;DHT22;43322;52.230;5.702;2023-05-18T14:49:48;20.80;82.60
23719;DHT22;43322;52.230;5.702;2023-05-18T14:52:15;20.60;81.80
23719;DHT22;43322;52.230;5.702;2023-05-18T14:54:42;20.80;83.30
23719;DHT22;43322;52.230;5.702;2023-05-18T14:57:08;20.70;84.70
23719;DHT22;43322;52.230;5.702;2023-05-18T14:59:37;20.50;81.70
23719;DHT22;43322;52.230;5.702;2023-05-18T15:02:03;20.10;81.10
23719;DHT22;43322;52.230;5.702;2023-05-18T15:04:32;19.80;82.00
23719;DHT22;43322;52.230;5.702;2023-05-18T15:06:58;19.70;84.50
23719;DHT22;43322;52.230;5.702;2023-05-18T15:09:25;19.70;85.50
23719;DHT22;43322;52.230;5.702;2023-05-18T15:11:52;19.60;87.30
23719;DHT22;43322;52.230;5.702;2023-05-18T15:14:19;19.50;89.80
23719;DHT22;43322;52.230;5.702;2023-05-18T15:16:47;19.30;84.10
23719;DHT22;43322;52.230;5.702;2023-05-18T15:19:13;19.10;88.60
23719;DHT22;43322;52.230;5.702;2023-05-18T15:21:40;18.80;84.60
23719;DHT22;43322;52.230;5.702;2023-05-18T15:24:09;18.70;88.90
23719;DHT22;43322;52.230;5.702;2023-05-18T15:26:36;18.60;85.10
23719;DHT22;43322;52.230;5.702;2023-05-18T15:29:03;18.60;86.10
23719;DHT22;43322;52.230;5.702;2023-05-18T15:31:29;18.60;85.60
23719;DHT22;43322;52.230;5.702;2023-05-18T15:33:58;18.60;87.70
23719;DHT22;43322;52.230;5.702;2023-05-18T15:36:25;18.60;90.70
23719;DHT22;43322;52.230;5.702;2023-05-18T15:38:53;18.50;86.60
23719;DHT22;43322;52.230;5.702;2023-05-18T15:41:20;18.50;85.40
23719;DHT22;43322;52.230;5.702;2023-05-18T15:43:47;18.60;88.70